createdAt,value
2023-05-03T00:01:21.917Z,96816.88
2023-05-03T00:03:52.645Z,96816.59
2023-05-03T00:06:19.936Z,96812.03
2023-05-03T00:08:46.609Z,96818.50
2023-05-03T00:11:13.397Z,96817.56
2023-05-03T00:13:40.129Z,96817.75
2023-05-03T00:16:06.910Z,96813.41
2023-05-03T00:18:33.576Z,96816.31
2023-05-03T00:21:00.245Z,96813.03
2023-05-03T00:23:28.365Z,96806.84
2023-05-03T00:25:58.794Z,96810.63
2023-05-03T00:28:26.279Z,96811.78
2023-05-03T00:30:53.299Z,96813.81
2023-05-03T00:33:20.113Z,96810.56
2023-05-03T00:35:46.762Z,96807.28
2023-05-03T00:38:15.458Z,96801.88
2023-05-03T00:40:42.154Z,96809.38
2023-05-03T00:43:12.230Z,96807.50
2023-05-03T00:45:38.874Z,96811.00
2023-05-03T00:48:06.381Z,96806.09
2023-05-03T00:50:33.248Z,96809.91
2023-05-03T00:53:00.340Z,96798.91
2023-05-03T00:55:29.613Z,96801.97
2023-05-03T00:57:56.228Z,96802.69
2023-05-03T01:00:24.129Z,96799.56
2023-05-03T01:02:50.900Z,96806.03
2023-05-03T01:05:17.876Z,96797.28
2023-05-03T01:08:11.520Z,96800.53
2023-05-03T01:10:38.071Z,96799.50
2023-05-03T01:13:23.414Z,96802.47
2023-05-03T01:16:00.089Z,96797.53
2023-05-03T01:18:32.438Z,96801.59
2023-05-03T01:21:01.479Z,96802.63
2023-05-03T01:23:33.842Z,96809.41
2023-05-03T01:26:01.139Z,96799.69
2023-05-03T01:28:27.822Z,96795.47
2023-05-03T01:30:56.938Z,96792.03
2023-05-03T01:33:48.783Z,96793.88
2023-05-03T01:36:26.945Z,96784.84
2023-05-03T01:38:54.460Z,96788.84
2023-05-03T01:41:23.481Z,96794.69
2023-05-03T01:43:51.858Z,96789.53
2023-05-03T01:46:18.509Z,96791.25
2023-05-03T01:48:45.334Z,96789.09
2023-05-03T01:51:12.012Z,96797.66
2023-05-03T01:53:38.641Z,96798.09
2023-05-03T01:56:05.677Z,96797.28
2023-05-03T01:58:32.265Z,96798.44
2023-05-03T02:00:58.868Z,96797.16
2023-05-03T02:03:25.489Z,96802.81
2023-05-03T02:05:52.088Z,96802.47
2023-05-03T02:08:18.672Z,96801.31
2023-05-03T02:10:45.400Z,96792.38
2023-05-03T02:13:12.039Z,96793.16
2023-05-03T02:15:38.696Z,96794.97
2023-05-03T02:18:05.592Z,96787.63
2023-05-03T02:20:36.507Z,96793.59
2023-05-03T02:23:04.136Z,96797.81
2023-05-03T02:25:30.929Z,96795.44
2023-05-03T02:27:57.547Z,96790.03
2023-05-03T02:30:24.219Z,96794.59
2023-05-03T02:32:50.897Z,96791.84
2023-05-03T02:35:17.633Z,96796.22
2023-05-03T02:37:44.232Z,96792.34
2023-05-03T02:40:11.236Z,96793.88
2023-05-03T02:42:38.057Z,96794.88
2023-05-03T02:45:05.078Z,96789.38
2023-05-03T02:47:31.762Z,96789.75
2023-05-03T02:49:58.401Z,96787.06
2023-05-03T02:52:25.065Z,96791.63
2023-05-03T02:54:51.770Z,96783.50
2023-05-03T02:57:18.402Z,96783.25
2023-05-03T02:59:45.013Z,96783.41
2023-05-03T03:02:11.632Z,96782.47
2023-05-03T03:04:38.264Z,96793.44
2023-05-03T03:07:05.336Z,96780.50
2023-05-03T03:09:32.005Z,96783.19
2023-05-03T03:12:03.090Z,96785.06
2023-05-03T03:14:30.384Z,96790.25
2023-05-03T03:17:03.420Z,96786.38
2023-05-03T03:19:30.155Z,96791.19
2023-05-03T03:21:56.820Z,96791.47
2023-05-03T03:24:23.471Z,96794.25
2023-05-03T03:26:50.049Z,96791.28
2023-05-03T03:29:16.832Z,96794.97
2023-05-03T03:31:43.641Z,96786.19
2023-05-03T03:34:12.288Z,96785.88
2023-05-03T03:36:39.432Z,96793.69
2023-05-03T03:39:07.376Z,96789.09
2023-05-03T03:41:34.107Z,96788.78
2023-05-03T03:44:00.713Z,96791.84
2023-05-03T03:46:27.446Z,96800.66
2023-05-03T03:48:54.100Z,96794.47
2023-05-03T03:51:20.738Z,96788.00
2023-05-03T03:53:47.323Z,96796.28
2023-05-03T03:56:14.000Z,96793.00
2023-05-03T03:58:40.731Z,96796.59
2023-05-03T04:01:07.460Z,96797.44
2023-05-03T04:03:34.217Z,96795.25
2023-05-03T04:06:01.013Z,96801.47
2023-05-03T04:08:27.719Z,96800.94
2023-05-03T04:10:54.323Z,96806.03
2023-05-03T04:13:21.000Z,96801.97
2023-05-03T04:15:47.579Z,96804.09
2023-05-03T04:18:14.239Z,96805.69
2023-05-03T04:20:40.910Z,96806.47
2023-05-03T04:23:07.507Z,96812.91
2023-05-03T04:25:34.254Z,96816.97
2023-05-03T04:28:00.854Z,96808.88
2023-05-03T04:30:27.484Z,96819.22
2023-05-03T04:32:55.548Z,96819.22
2023-05-03T04:35:22.304Z,96815.44
2023-05-03T04:37:48.964Z,96821.84
2023-05-03T04:40:17.235Z,96823.22
2023-05-03T04:42:43.932Z,96824.03
2023-05-03T04:45:11.023Z,96824.84
2023-05-03T04:47:37.734Z,96831.16
2023-05-03T04:50:04.961Z,96828.41
2023-05-03T04:52:32.000Z,96834.59
2023-05-03T04:54:58.646Z,96833.34
2023-05-03T04:57:25.669Z,96835.47
2023-05-03T04:59:54.129Z,96839.22
2023-05-03T05:02:21.732Z,96847.50
2023-05-03T05:04:48.557Z,96836.63
2023-05-03T05:07:15.555Z,96837.56
2023-05-03T05:09:42.153Z,96845.38
2023-05-03T05:12:09.012Z,96844.69
2023-05-03T05:14:35.797Z,96852.31
2023-05-03T05:17:02.531Z,96856.75
2023-05-03T05:19:29.213Z,96854.59
2023-05-03T05:21:56.310Z,96855.00
2023-05-03T05:24:22.953Z,96858.56
2023-05-03T05:26:49.900Z,96849.63
2023-05-03T05:29:16.528Z,96854.34
2023-05-03T05:31:43.157Z,96865.13
2023-05-03T05:34:09.847Z,96856.53
2023-05-03T05:36:36.657Z,96863.75
2023-05-03T05:39:03.815Z,96856.53
2023-05-03T05:41:30.426Z,96869.72
2023-05-03T05:43:58.634Z,96869.63
2023-05-03T05:46:25.992Z,96864.06
2023-05-03T05:48:52.692Z,96878.44
2023-05-03T05:51:20.210Z,96868.06
2023-05-03T05:53:46.877Z,96874.41
2023-05-03T05:56:13.562Z,96877.47
2023-05-03T05:58:40.415Z,96873.66
2023-05-03T06:01:08.541Z,96876.91
2023-05-03T06:03:35.162Z,96868.25
2023-05-03T06:06:01.847Z,96875.16
2023-05-03T06:08:28.539Z,96877.03
2023-05-03T06:10:55.352Z,96881.25
2023-05-03T06:13:22.652Z,96885.69
2023-05-03T06:15:49.283Z,96877.78
2023-05-03T06:18:16.041Z,96888.25
2023-05-03T06:20:42.836Z,96890.09
2023-05-03T06:23:09.510Z,96881.84
2023-05-03T06:25:39.156Z,96888.09
2023-05-03T06:28:05.766Z,96886.84
2023-05-03T06:30:32.528Z,96891.69
2023-05-03T06:32:59.155Z,96894.13
2023-05-03T06:35:26.564Z,96899.06
2023-05-03T06:37:53.186Z,96894.13
2023-05-03T06:40:19.807Z,96904.78
2023-05-03T06:42:46.515Z,96897.91
2023-05-03T06:45:13.209Z,96900.63
2023-05-03T06:47:42.711Z,96902.44
2023-05-03T06:50:10.707Z,96906.69
2023-05-03T06:52:37.500Z,96902.72
2023-05-03T06:55:04.988Z,96908.25
2023-05-03T06:57:31.996Z,96910.59
2023-05-03T06:59:58.893Z,96909.53
2023-05-03T07:02:26.877Z,96912.84
2023-05-03T07:04:53.854Z,96910.59
2023-05-03T07:07:20.627Z,96902.34
2023-05-03T07:09:47.458Z,96910.28
2023-05-03T07:12:14.064Z,96904.31
2023-05-03T07:14:40.790Z,96897.50
2023-05-03T07:17:07.572Z,96903.38
2023-05-03T07:19:34.350Z,96901.38
2023-05-03T07:22:03.175Z,96894.34
2023-05-03T07:24:29.895Z,96899.75
2023-05-03T07:26:58.130Z,96896.13
2023-05-03T07:29:24.768Z,96897.22
2023-05-03T07:31:53.468Z,96894.44
2023-05-03T07:34:20.948Z,96897.34
2023-05-03T07:36:47.566Z,96895.56
2023-05-03T07:39:14.176Z,96896.91
2023-05-03T07:41:40.781Z,96895.94
2023-05-03T07:44:07.842Z,96898.97
2023-05-03T07:46:35.424Z,96898.25
2023-05-03T07:49:04.174Z,96896.13
2023-05-03T07:51:34.897Z,96892.78
2023-05-03T07:54:01.721Z,96899.91
2023-05-03T07:56:28.857Z,96901.41
2023-05-03T07:59:05.146Z,96905.66
2023-05-03T08:01:35.610Z,96901.59
2023-05-03T08:04:02.368Z,96894.03
2023-05-03T08:06:29.472Z,96904.84
2023-05-03T08:08:56.270Z,96907.63
2023-05-03T08:11:22.902Z,96903.28
2023-05-03T08:13:49.678Z,96902.84
2023-05-03T08:16:16.642Z,96903.28
2023-05-03T08:18:43.358Z,96914.66
2023-05-03T08:21:12.436Z,96901.06
2023-05-03T08:23:39.614Z,96914.19
2023-05-03T08:26:07.809Z,96909.28
2023-05-03T08:28:34.545Z,96913.94
2023-05-03T08:31:03.757Z,96915.00
2023-05-03T08:33:30.957Z,96918.31
2023-05-03T08:35:57.577Z,96918.03
2023-05-03T08:38:24.634Z,96920.78
2023-05-03T08:40:53.840Z,96918.44
2023-05-03T08:43:24.160Z,96926.09
2023-05-03T08:45:51.505Z,96926.03
2023-05-03T08:48:18.944Z,96930.00
2023-05-03T08:50:45.643Z,96926.81
2023-05-03T08:53:12.263Z,96935.88
2023-05-03T08:55:38.972Z,96936.22
2023-05-03T08:58:10.783Z,96929.91
2023-05-03T09:00:38.512Z,96919.03
2023-05-03T09:03:05.400Z,96926.44
2023-05-03T09:05:34.688Z,96930.22
2023-05-03T09:08:07.476Z,96931.06
2023-05-03T09:10:37.915Z,96934.25
2023-05-03T09:13:04.646Z,96938.50
2023-05-03T09:15:31.481Z,96940.44
2023-05-03T09:18:18.425Z,96944.31
2023-05-03T09:20:53.153Z,96947.75
2023-05-03T09:23:31.336Z,96940.19
2023-05-03T09:26:00.152Z,96939.81
2023-05-03T09:28:27.465Z,96939.88
2023-05-03T09:31:06.854Z,96938.16
2023-05-03T09:33:34.151Z,96936.28
2023-05-03T09:36:05.691Z,96935.19
2023-05-03T09:38:35.002Z,96938.38
2023-05-03T09:41:01.726Z,96937.09
2023-05-03T09:43:28.456Z,96929.31
2023-05-03T09:46:09.168Z,96928.66
2023-05-03T09:48:37.567Z,96926.91
2023-05-03T09:51:08.023Z,96932.25
2023-05-03T09:53:36.366Z,96926.53
2023-05-03T09:56:04.171Z,96921.16
2023-05-03T09:58:34.879Z,96917.81
2023-05-03T10:01:01.935Z,96921.94
2023-05-03T10:03:32.181Z,96912.88
2023-05-03T10:06:01.936Z,96915.22
2023-05-03T10:08:35.057Z,96910.69
2023-05-03T10:11:08.086Z,96903.66
2023-05-03T10:13:36.217Z,96907.25
2023-05-03T10:16:07.100Z,96914.16
2023-05-03T10:18:37.998Z,96909.41
2023-05-03T10:21:09.948Z,96900.41
2023-05-03T10:23:36.579Z,96903.06
2023-05-03T10:26:07.112Z,96884.06
2023-05-03T10:28:34.246Z,96881.59
2023-05-03T10:31:00.972Z,96878.91
2023-05-03T10:33:37.516Z,96887.91
2023-05-03T10:36:10.607Z,96886.28
2023-05-03T10:38:38.069Z,96884.38
2023-05-03T10:41:06.907Z,96878.34
2023-05-03T10:43:33.510Z,96879.16
2023-05-03T10:46:04.599Z,96876.31
2023-05-03T10:48:32.361Z,96882.91
2023-05-03T10:51:29.084Z,96880.34
2023-05-03T10:53:55.912Z,96890.19
2023-05-03T10:56:22.797Z,96888.22
2023-05-03T10:58:50.865Z,96872.91
2023-05-03T11:01:19.290Z,96881.22
2023-05-03T11:04:07.836Z,96883.44
2023-05-03T11:06:36.193Z,96877.72
2023-05-03T11:09:06.537Z,96878.81
2023-05-03T11:11:34.170Z,96872.00
2023-05-03T11:14:00.914Z,96867.19
2023-05-03T11:16:27.888Z,96871.59
2023-05-03T11:18:55.316Z,96863.97
2023-05-03T11:21:23.166Z,96858.72
2023-05-03T11:23:49.939Z,96856.66
2023-05-03T11:26:16.888Z,96859.78
2023-05-03T11:28:44.383Z,96860.25
2023-05-03T11:31:13.423Z,96864.56
2023-05-03T11:33:41.095Z,96862.63
2023-05-03T11:36:09.802Z,96862.72
2023-05-03T11:38:39.451Z,96857.72
2023-05-03T11:41:14.673Z,96852.31
2023-05-03T11:43:45.548Z,96854.56
2023-05-03T11:46:14.446Z,96858.81
2023-05-03T11:48:44.348Z,96844.22
2023-05-03T11:51:12.524Z,96840.53
2023-05-03T11:53:41.066Z,96843.28
2023-05-03T11:56:11.496Z,96843.06
2023-05-03T11:58:53.389Z,96835.25
2023-05-03T12:01:23.815Z,96840.94
2023-05-03T12:03:55.580Z,96839.56
2023-05-03T12:06:24.064Z,96831.69
2023-05-03T12:08:51.530Z,96836.25
2023-05-03T12:11:19.116Z,96824.19
2023-05-03T12:13:58.465Z,96825.53
2023-05-03T12:16:26.216Z,96826.25
2023-05-03T12:18:56.498Z,96823.84
2023-05-03T12:23:56.633Z,96821.72
2023-05-03T12:26:25.624Z,96817.34
2023-05-03T12:28:56.162Z,96817.72
2023-05-03T12:31:23.916Z,96816.69
2023-05-03T12:34:12.578Z,96814.72
2023-05-03T12:36:38.557Z,96817.56
2023-05-03T12:39:09.514Z,96809.63
2023-05-03T12:44:09.894Z,96799.03
2023-05-03T12:46:38.328Z,96787.38
2023-05-03T12:49:08.196Z,96789.19
2023-05-03T12:51:36.123Z,96778.75
2023-05-03T12:54:03.931Z,96775.34
2023-05-03T12:56:32.927Z,96768.91
2023-05-03T12:59:23.160Z,96770.50
2023-05-03T13:03:08.483Z,96773.44
2023-05-03T13:04:56.598Z,96769.13
2023-05-03T13:07:28.216Z,96759.13
2023-05-03T13:12:27.404Z,96754.00
2023-05-03T13:14:57.349Z,96753.94
2023-05-03T13:17:24.108Z,96755.78
2023-05-03T13:19:51.753Z,96749.72
2023-05-03T13:22:18.739Z,96744.91
2023-05-03T13:24:47.123Z,96741.84
2023-05-03T13:27:14.070Z,96739.44
2023-05-03T13:29:40.938Z,96737.09
2023-05-03T13:32:08.562Z,96732.34
2023-05-03T13:34:36.350Z,96734.44
2023-05-03T13:37:04.613Z,96725.81
2023-05-03T13:39:32.060Z,96725.81
2023-05-03T13:41:59.050Z,96718.56
2023-05-03T13:44:26.110Z,96714.25
2023-05-03T13:46:53.650Z,96712.44
2023-05-03T13:49:20.801Z,96715.69
2023-05-03T13:51:47.689Z,96712.50
2023-05-03T13:54:14.407Z,96712.47
2023-05-03T13:56:42.917Z,96714.28
2023-05-03T13:59:12.467Z,96710.50
2023-05-03T14:01:39.909Z,96708.03
2023-05-03T14:04:06.992Z,96715.13
2023-05-03T14:06:34.134Z,96705.31
2023-05-03T14:09:01.970Z,96715.56
2023-05-03T14:11:30.438Z,96714.91
2023-05-03T14:13:58.723Z,96715.59
2023-05-03T14:16:40.159Z,96710.41
2023-05-03T14:19:10.617Z,96706.97
2023-05-03T14:21:37.908Z,96717.47
2023-05-03T14:24:05.093Z,96717.53
2023-05-03T14:26:33.986Z,96718.00
2023-05-03T14:29:00.898Z,96720.09
2023-05-03T14:31:27.604Z,96724.84
2023-05-03T14:33:54.707Z,96712.53
2023-05-03T14:36:21.359Z,96705.16
2023-05-03T14:38:47.986Z,96704.81
2023-05-03T14:41:14.617Z,96705.88
2023-05-03T14:43:41.244Z,96709.13
2023-05-03T14:46:09.872Z,96705.72
2023-05-03T14:48:38.141Z,96701.81
2023-05-03T14:51:05.482Z,96708.28
2023-05-03T14:53:32.412Z,96702.25
2023-05-03T14:55:59.500Z,96710.28
2023-05-03T14:58:26.223Z,96713.97
2023-05-03T15:00:53.185Z,96706.44
2023-05-03T15:03:19.924Z,96706.75
2023-05-03T15:05:50.466Z,96707.31
2023-05-03T15:08:19.347Z,96700.78
2023-05-03T15:10:46.628Z,96692.06
2023-05-03T15:13:14.480Z,96698.78
2023-05-03T15:15:43.596Z,96700.94
2023-05-03T15:18:11.112Z,96704.34
2023-05-03T15:20:38.027Z,96706.78
2023-05-03T15:23:05.153Z,96701.22
2023-05-03T15:25:32.460Z,96702.03
2023-05-03T15:28:01.211Z,96703.69
2023-05-03T15:30:30.382Z,96700.53
2023-05-03T15:32:56.996Z,96704.59
2023-05-03T15:35:23.647Z,96700.84
2023-05-03T15:37:50.429Z,96700.69
2023-05-03T15:40:18.726Z,96703.94
2023-05-03T15:42:45.407Z,96698.69
2023-05-03T15:45:13.319Z,96700.00
2023-05-03T15:47:40.069Z,96703.81
2023-05-03T15:50:07.850Z,96703.34
2023-05-03T15:52:35.036Z,96702.63
2023-05-03T15:55:01.873Z,96702.03
2023-05-03T15:57:30.170Z,96702.63
2023-05-03T15:59:57.493Z,96707.72
2023-05-03T16:02:24.395Z,96707.25
2023-05-03T16:04:51.217Z,96709.94
2023-05-03T16:07:18.048Z,96708.22
2023-05-03T16:09:44.951Z,96707.41
2023-05-03T16:12:11.722Z,96711.25
2023-05-03T16:14:38.403Z,96712.00
2023-05-03T16:17:05.015Z,96716.31
2023-05-03T16:19:32.119Z,96710.03
2023-05-03T16:21:59.139Z,96701.34
2023-05-03T16:24:25.832Z,96699.88
2023-05-03T16:26:52.858Z,96689.38
2023-05-03T16:29:19.967Z,96694.84
2023-05-03T16:31:47.220Z,96697.84
2023-05-03T16:34:14.305Z,96683.47
2023-05-03T16:36:45.283Z,96684.44
2023-05-03T16:39:12.828Z,96686.50
2023-05-03T16:41:40.287Z,96685.91
2023-05-03T16:44:08.293Z,96684.03
2023-05-03T16:46:39.715Z,96685.78
2023-05-03T16:49:06.615Z,96686.88
2023-05-03T16:51:33.903Z,96686.06
2023-05-03T16:54:02.960Z,96684.50
2023-05-03T16:56:31.067Z,96681.16
2023-05-03T16:58:59.283Z,96688.59
2023-05-03T17:01:26.407Z,96682.09
2023-05-03T17:03:53.382Z,96688.03
2023-05-03T17:06:20.269Z,96683.25
2023-05-03T17:08:46.961Z,96682.72
2023-05-03T17:11:14.689Z,96695.97
2023-05-03T17:13:42.014Z,96699.38
2023-05-03T17:16:10.873Z,96699.44
2023-05-03T17:18:40.395Z,96697.41
2023-05-03T17:21:08.278Z,96708.16
2023-05-03T17:23:37.878Z,96711.34
2023-05-03T17:26:06.568Z,96703.53
2023-05-03T17:28:33.234Z,96708.47
2023-05-03T17:31:00.367Z,96713.41
2023-05-03T17:33:27.368Z,96711.06
2023-05-03T17:35:55.626Z,96718.41
2023-05-03T17:38:23.360Z,96715.41
2023-05-03T17:40:50.040Z,96712.69
2023-05-03T17:43:17.788Z,96712.34
2023-05-03T17:45:46.048Z,96711.88
2023-05-03T17:48:13.219Z,96720.31
2023-05-03T17:50:41.648Z,96717.75
2023-05-03T17:53:09.323Z,96721.53
2023-05-03T17:55:38.221Z,96733.59
2023-05-03T17:58:06.475Z,96729.59
2023-05-03T18:00:33.773Z,96732.09
2023-05-03T18:03:01.185Z,96733.06
2023-05-03T18:05:28.090Z,96730.66
2023-05-03T18:07:54.760Z,96734.69
2023-05-03T18:10:22.285Z,96737.81
2023-05-03T18:12:49.214Z,96741.88
2023-05-03T18:15:16.235Z,96743.47
2023-05-03T18:17:43.471Z,96746.97
2023-05-03T18:20:10.641Z,96739.47
2023-05-03T18:22:37.841Z,96744.13
2023-05-03T18:25:07.570Z,96746.66
2023-05-03T18:27:36.865Z,96740.00
2023-05-03T18:30:06.629Z,96738.28
2023-05-03T18:32:34.454Z,96748.69
2023-05-03T18:35:02.554Z,96745.97
2023-05-03T18:37:29.540Z,96746.50
2023-05-03T18:39:56.158Z,96747.25
2023-05-03T18:42:23.036Z,96750.63
2023-05-03T18:44:49.812Z,96758.66
2023-05-03T18:47:20.783Z,96760.31
2023-05-03T18:49:51.340Z,96756.19
2023-05-03T18:52:21.621Z,96763.69
2023-05-03T18:54:49.722Z,96759.84
2023-05-03T18:57:16.546Z,96758.91
2023-05-03T18:59:56.724Z,96758.41
2023-05-03T19:02:30.576Z,96760.41
2023-05-03T19:04:58.242Z,96759.56
2023-05-03T19:07:25.088Z,96770.75
2023-05-03T19:09:55.293Z,96767.25
2023-05-03T19:12:22.751Z,96768.81
2023-05-03T19:14:49.615Z,96767.25
2023-05-03T19:17:16.785Z,96769.34
2023-05-03T19:19:43.439Z,96764.56
2023-05-03T19:22:10.178Z,96773.97
2023-05-03T19:24:36.867Z,96781.31
2023-05-03T19:27:04.724Z,96781.16
2023-05-03T19:29:31.555Z,96780.19
2023-05-03T19:31:58.226Z,96779.72
2023-05-03T19:34:24.951Z,96780.34
2023-05-03T19:36:51.534Z,96791.66
2023-05-03T19:39:18.172Z,96789.09
2023-05-03T19:41:44.818Z,96785.59
2023-05-03T19:44:11.847Z,96800.59
2023-05-03T19:46:38.652Z,96799.56
2023-05-03T19:49:05.729Z,96787.94
2023-05-03T19:51:33.241Z,96796.34
2023-05-03T19:54:03.262Z,96786.88
2023-05-03T19:56:29.974Z,96791.50
2023-05-03T19:58:56.954Z,96794.59
2023-05-03T20:01:23.914Z,96792.66
2023-05-03T20:03:53.465Z,96800.47
2023-05-03T20:06:20.740Z,96793.19
2023-05-03T20:08:47.363Z,96796.66
2023-05-03T20:11:14.103Z,96796.31
2023-05-03T20:13:40.719Z,96800.50
2023-05-03T20:16:08.340Z,96799.63
2023-05-03T20:18:35.377Z,96803.91
2023-05-03T20:21:03.700Z,96799.88
2023-05-03T20:23:30.610Z,96800.16
2023-05-03T20:25:57.312Z,96794.03
2023-05-03T20:28:24.305Z,96795.31
2023-05-03T20:30:51.278Z,96799.06
2023-05-03T20:33:17.960Z,96803.28
2023-05-03T20:35:44.682Z,96796.38
2023-05-03T20:38:11.419Z,96791.13
2023-05-03T20:40:38.417Z,96794.91
2023-05-03T20:43:05.046Z,96786.28
2023-05-03T20:45:31.887Z,96794.75
2023-05-03T20:47:58.770Z,96796.66
2023-05-03T20:50:25.468Z,96789.28
2023-05-03T20:52:52.109Z,96796.06
2023-05-03T20:55:18.927Z,96799.00
2023-05-03T20:57:45.853Z,96800.59
2023-05-03T21:00:13.304Z,96801.38
2023-05-03T21:02:40.020Z,96804.09
2023-05-03T21:05:07.136Z,96796.13
2023-05-03T21:07:33.734Z,96800.72
2023-05-03T21:10:00.574Z,96796.44
2023-05-03T21:12:27.223Z,96794.44
2023-05-03T21:14:53.864Z,96795.03
2023-05-03T21:17:20.483Z,96795.31
2023-05-03T21:19:47.125Z,96787.63
2023-05-03T21:22:13.770Z,96802.81
2023-05-03T21:24:40.457Z,96793.06
2023-05-03T21:27:07.073Z,96799.16
2023-05-03T21:29:33.726Z,96789.38
2023-05-03T21:32:00.671Z,96793.66
2023-05-03T21:34:27.352Z,96801.31
2023-05-03T21:36:54.170Z,96801.94
2023-05-03T21:39:21.583Z,96797.53
2023-05-03T21:41:48.327Z,96801.41
2023-05-03T21:44:14.985Z,96800.13
2023-05-03T21:46:42.938Z,96801.50
2023-05-03T21:49:09.840Z,96800.50
2023-05-03T21:51:36.622Z,96795.97
2023-05-03T21:54:03.366Z,96794.16
2023-05-03T21:56:30.028Z,96801.84
2023-05-03T21:58:56.709Z,96794.22
2023-05-03T22:01:23.373Z,96798.81
2023-05-03T22:03:50.345Z,96803.78
2023-05-03T22:06:17.172Z,96800.44
2023-05-03T22:08:43.948Z,96795.41
2023-05-03T22:11:11.532Z,96790.84
2023-05-03T22:13:50.284Z,96804.53
2023-05-03T22:16:21.698Z,96801.88
2023-05-03T22:18:48.943Z,96800.66
2023-05-03T22:21:15.596Z,96805.00
2023-05-03T22:23:42.793Z,96803.13
2023-05-03T22:26:09.385Z,96786.44
2023-05-03T22:28:35.996Z,96797.91
2023-05-03T22:31:02.629Z,96795.31
2023-05-03T22:33:29.280Z,96796.84
2023-05-03T22:35:55.882Z,96801.66
2023-05-03T22:38:22.544Z,96801.38
2023-05-03T22:40:49.134Z,96799.19
2023-05-03T22:43:15.981Z,96804.97
2023-05-03T22:45:43.330Z,96803.03
2023-05-03T22:48:10.070Z,96803.88
2023-05-03T22:50:36.840Z,96803.13
2023-05-03T22:53:03.775Z,96793.81
2023-05-03T22:55:30.422Z,96801.75
2023-05-03T22:57:57.061Z,96788.84
2023-05-03T23:00:23.815Z,96788.28
2023-05-03T23:02:50.503Z,96781.84
2023-05-03T23:05:17.160Z,96787.00
2023-05-03T23:07:43.842Z,96783.00
2023-05-03T23:10:10.807Z,96780.53
2023-05-03T23:12:37.803Z,96778.25
2023-05-03T23:15:05.287Z,96774.50
2023-05-03T23:17:31.890Z,96772.31
2023-05-03T23:19:58.562Z,96776.56
2023-05-03T23:22:25.167Z,96780.09
2023-05-03T23:24:51.763Z,96775.63
2023-05-03T23:27:18.332Z,96779.09
2023-05-03T23:29:47.294Z,96783.19
2023-05-03T23:32:14.356Z,96782.69
2023-05-03T23:34:41.978Z,96788.16
2023-05-03T23:37:08.564Z,96784.78
2023-05-03T23:39:35.170Z,96782.47
2023-05-03T23:42:01.828Z,96783.44
2023-05-03T23:44:39.292Z,96783.38
2023-05-03T23:47:13.892Z,96784.31
2023-05-03T23:49:41.089Z,96775.00
2023-05-03T23:52:09.857Z,96780.47
2023-05-03T23:54:37.624Z,96778.63
2023-05-03T23:57:04.212Z,96776.34
2023-05-03T23:59:30.832Z,96776.53
